createdAt,value
2022-09-12T00:01:17.799Z,1.77
2022-09-12T00:03:44.878Z,2.00
2022-09-12T00:06:24.361Z,2.10
2022-09-12T00:08:55.797Z,1.95
2022-09-12T00:11:23.698Z,1.60
2022-09-12T00:13:50.625Z,1.77
2022-09-12T00:16:20.845Z,2.03
2022-09-12T00:18:47.951Z,1.92
2022-09-12T00:21:16.904Z,1.67
2022-09-12T00:23:44.566Z,1.60
2022-09-12T00:26:11.642Z,1.73
2022-09-12T00:28:40.522Z,1.77
2022-09-12T00:31:11.224Z,1.95
2022-09-12T00:33:38.599Z,2.05
2022-09-12T00:36:08.728Z,1.85
2022-09-12T00:38:38.576Z,1.92
2022-09-12T00:41:06.340Z,2.00
2022-09-12T00:43:42.191Z,2.03
2022-09-12T00:46:39.334Z,2.22
2022-09-12T00:49:12.628Z,1.92
2022-09-12T00:51:43.660Z,2.10
2022-09-12T00:54:19.263Z,2.35
2022-09-12T00:56:51.794Z,1.90
2022-09-12T00:59:25.075Z,1.90
2022-09-12T01:01:52.780Z,2.03
2022-09-12T01:04:23.381Z,2.20
2022-09-12T01:06:51.674Z,2.20
2022-09-12T01:09:21.699Z,2.20
2022-09-12T01:11:51.597Z,2.00
2022-09-12T01:14:19.719Z,2.30
2022-09-12T01:16:48.544Z,1.98
2022-09-12T01:19:49.352Z,2.08
2022-09-12T01:22:56.104Z,1.83
2022-09-12T01:25:28.971Z,1.95
2022-09-12T01:28:20.812Z,1.70
2022-09-12T01:31:21.484Z,2.17
2022-09-12T01:33:54.726Z,1.88
2022-09-12T01:36:40.232Z,1.90
2022-09-12T01:39:31.194Z,2.22
2022-09-12T01:42:41.982Z,2.13
2022-09-12T01:45:30.833Z,2.00
2022-09-12T01:48:13.555Z,1.85
2022-09-12T01:50:47.662Z,2.00
2022-09-12T01:53:20.939Z,2.30
2022-09-12T01:56:02.936Z,1.77
2022-09-12T01:58:45.817Z,2.40
2022-09-12T02:01:18.092Z,1.80
2022-09-12T02:04:19.843Z,2.28
2022-09-12T02:06:54.594Z,2.10
2022-09-12T02:09:29.839Z,1.83
2022-09-12T02:12:00.181Z,2.15
2022-09-12T02:14:32.312Z,1.90
2022-09-12T02:17:05.311Z,2.20
2022-09-12T02:19:45.690Z,2.15
2022-09-12T02:22:18.187Z,2.35
2022-09-12T02:24:50.631Z,1.73
2022-09-12T02:27:17.519Z,2.00
2022-09-12T02:29:45.476Z,2.80
2022-09-12T02:32:18.060Z,3.55
2022-09-12T02:35:22.473Z,2.58
2022-09-12T02:38:09.715Z,2.42
2022-09-12T02:40:37.152Z,2.22
2022-09-12T02:43:05.944Z,1.80
2022-09-12T02:45:34.827Z,1.75
2022-09-12T02:48:12.774Z,2.20
2022-09-12T02:50:41.316Z,1.92
2022-09-12T02:53:09.379Z,2.38
2022-09-12T02:55:38.691Z,1.90
2022-09-12T02:58:08.871Z,1.92
2022-09-12T03:00:49.345Z,1.73
2022-09-12T03:03:45.200Z,2.42
2022-09-12T03:06:26.145Z,1.98
2022-09-12T03:09:07.584Z,2.05
2022-09-12T03:11:42.708Z,2.20
2022-09-12T03:14:21.109Z,2.13
2022-09-12T03:17:10.012Z,2.03
2022-09-12T03:19:40.094Z,2.17
2022-09-12T03:22:49.300Z,2.00
2022-09-12T03:25:28.065Z,2.10
2022-09-12T03:28:11.904Z,1.55
2022-09-12T03:30:44.614Z,2.22
2022-09-12T03:33:19.517Z,2.00
2022-09-12T03:35:47.763Z,1.58
2022-09-12T03:38:15.423Z,2.15
2022-09-12T03:40:42.870Z,2.05
2022-09-12T03:43:10.882Z,1.90
2022-09-12T03:45:38.698Z,2.00
2022-09-12T03:48:06.303Z,2.25
2022-09-12T03:50:33.827Z,2.05
2022-09-12T03:53:01.042Z,2.17
2022-09-12T03:55:28.208Z,2.20
2022-09-12T03:57:55.595Z,1.83
2022-09-12T04:00:23.856Z,2.17
2022-09-12T04:02:55.944Z,2.30
2022-09-12T04:05:23.934Z,2.20
2022-09-12T04:07:51.619Z,2.40
2022-09-12T04:10:18.779Z,2.05
2022-09-12T04:12:45.728Z,2.33
2022-09-12T04:15:12.730Z,2.17
2022-09-12T04:17:39.671Z,2.30
2022-09-12T04:20:07.398Z,2.20
2022-09-12T04:22:34.368Z,2.47
2022-09-12T04:25:01.595Z,1.90
2022-09-12T04:27:28.660Z,2.28
2022-09-12T04:29:56.352Z,2.13
2022-09-12T04:32:23.324Z,1.98
2022-09-12T04:34:52.360Z,1.70
2022-09-12T04:37:19.445Z,2.15
2022-09-12T04:39:49.135Z,2.05
2022-09-12T04:42:16.399Z,2.10
2022-09-12T04:44:43.756Z,1.63
2022-09-12T04:47:10.725Z,1.65
2022-09-12T04:49:37.711Z,1.58
2022-09-12T04:52:05.153Z,1.90
2022-09-12T04:54:32.608Z,2.20
2022-09-12T04:56:59.966Z,1.88
2022-09-12T04:59:26.987Z,2.08
2022-09-12T05:01:54.300Z,2.20
2022-09-12T05:04:21.594Z,2.03
2022-09-12T05:06:48.752Z,2.03
2022-09-12T05:09:16.541Z,1.75
2022-09-12T05:12:04.945Z,1.92
2022-09-12T05:14:33.066Z,1.90
2022-09-12T05:17:01.708Z,1.98
2022-09-12T05:19:30.371Z,2.03
2022-09-12T05:21:58.236Z,2.08
2022-09-12T05:24:26.731Z,2.13
2022-09-12T05:26:53.676Z,2.00
2022-09-12T05:29:20.642Z,2.22
2022-09-12T05:31:50.155Z,1.50
2022-09-12T05:34:17.161Z,1.50
2022-09-12T05:36:44.164Z,1.48
2022-09-12T05:39:11.159Z,1.70
2022-09-12T05:41:38.447Z,1.80
2022-09-12T05:44:07.609Z,2.05
2022-09-12T05:46:40.264Z,1.73
2022-09-12T05:49:09.917Z,2.22
2022-09-12T05:51:39.763Z,2.40
2022-09-12T05:54:09.174Z,2.78
2022-09-12T05:56:44.022Z,1.67
2022-09-12T05:59:17.348Z,2.92
2022-09-12T06:01:44.933Z,2.05
2022-09-12T06:04:12.968Z,2.20
2022-09-12T06:06:42.536Z,2.78
2022-09-12T06:09:10.992Z,2.13
2022-09-12T06:11:41.091Z,1.70
2022-09-12T06:14:10.845Z,2.22
2022-09-12T06:16:38.846Z,2.13
2022-09-12T06:19:20.001Z,1.63
2022-09-12T06:21:49.515Z,8.18
2022-09-12T06:24:17.673Z,19.40
2022-09-12T06:26:44.912Z,3.00
2022-09-12T06:29:11.936Z,2.55
2022-09-12T06:31:41.331Z,2.40
2022-09-12T06:34:12.177Z,2.50
2022-09-12T06:36:42.069Z,2.50
2022-09-12T06:39:16.502Z,2.65
2022-09-12T06:41:44.553Z,3.08
2022-09-12T06:44:20.917Z,3.00
2022-09-12T06:46:48.759Z,3.10
2022-09-12T06:49:15.865Z,2.70
2022-09-12T06:51:43.214Z,3.10
2022-09-12T06:54:13.784Z,2.60
2022-09-12T06:56:41.041Z,2.60
2022-09-12T06:59:08.137Z,2.45
2022-09-12T07:01:35.219Z,1.80
2022-09-12T07:04:04.309Z,2.13
2022-09-12T07:06:39.863Z,2.83
2022-09-12T07:09:10.463Z,2.83
2022-09-12T07:11:39.355Z,2.40
2022-09-12T07:14:07.910Z,2.35
2022-09-12T07:16:36.592Z,2.50
2022-09-12T07:19:05.338Z,2.50
2022-09-12T07:21:32.750Z,2.88
2022-09-12T07:23:59.855Z,2.30
2022-09-12T07:26:28.946Z,2.50
2022-09-12T07:29:12.742Z,2.15
2022-09-12T07:31:45.244Z,2.15
2022-09-12T07:34:12.222Z,2.45
2022-09-12T07:36:39.632Z,2.47
2022-09-12T07:39:06.836Z,2.13
2022-09-12T07:41:34.067Z,2.28
2022-09-12T07:44:02.424Z,2.42
2022-09-12T07:46:31.055Z,1.95
2022-09-12T07:48:59.105Z,2.47
2022-09-12T07:51:27.670Z,2.00
2022-09-12T07:53:56.414Z,2.15
2022-09-12T07:56:29.424Z,1.92
2022-09-12T07:58:57.195Z,2.03
2022-09-12T08:01:24.300Z,1.70
2022-09-12T08:03:58.928Z,1.95
2022-09-12T08:06:27.465Z,1.88
2022-09-12T08:08:56.326Z,2.20
2022-09-12T08:11:24.366Z,1.70
2022-09-12T08:13:55.273Z,1.92
2022-09-12T08:16:26.313Z,1.77
2022-09-12T08:18:53.790Z,2.28
2022-09-12T08:21:27.042Z,2.40
2022-09-12T08:24:02.273Z,2.70
2022-09-12T08:26:30.253Z,2.50
2022-09-12T08:28:57.209Z,2.20
2022-09-12T08:31:26.775Z,2.15
2022-09-12T08:33:56.604Z,1.83
2022-09-12T08:36:25.911Z,1.80
2022-09-12T08:38:59.906Z,1.92
2022-09-12T08:41:49.199Z,2.20
2022-09-12T08:44:32.336Z,2.80
2022-09-12T08:47:15.794Z,2.33
2022-09-12T08:49:58.686Z,2.92
2022-09-12T08:52:47.457Z,2.70
2022-09-12T08:55:45.431Z,2.75
2022-09-12T08:58:20.280Z,3.10
2022-09-12T09:00:58.207Z,2.70
2022-09-12T09:04:01.584Z,2.65
2022-09-12T09:06:49.359Z,2.75
2022-09-12T09:09:30.294Z,2.15
2022-09-12T09:12:06.799Z,2.63
2022-09-12T09:14:52.186Z,2.15
2022-09-12T09:17:22.428Z,2.50
2022-09-12T09:19:54.119Z,3.17
2022-09-12T09:22:33.275Z,2.75
2022-09-12T09:25:07.677Z,2.70
2022-09-12T09:28:16.239Z,2.40
2022-09-12T09:30:44.747Z,2.47
2022-09-12T09:33:26.991Z,2.72
2022-09-12T09:36:11.255Z,2.53
2022-09-12T09:39:01.198Z,3.13
2022-09-12T09:41:30.895Z,3.45
2022-09-12T09:43:58.854Z,3.20
2022-09-12T09:46:27.134Z,3.10
2022-09-12T09:48:54.976Z,2.85
2022-09-12T09:51:27.310Z,3.40
2022-09-12T09:54:01.580Z,3.20
2022-09-12T09:56:37.844Z,3.15
2022-09-12T09:59:26.666Z,2.85
2022-09-12T10:02:13.837Z,3.00
2022-09-12T10:04:52.548Z,3.10
2022-09-12T10:07:21.734Z,3.25
2022-09-12T10:10:05.190Z,2.70
2022-09-12T10:12:32.128Z,3.00
2022-09-12T10:15:01.140Z,3.92
2022-09-12T10:17:43.109Z,3.58
2022-09-12T10:20:39.054Z,3.58
2022-09-12T10:23:37.057Z,3.67
2022-09-12T10:26:10.307Z,2.38
2022-09-12T10:28:43.780Z,2.60
2022-09-12T10:31:15.887Z,3.20
2022-09-12T10:33:53.795Z,2.97
2022-09-12T10:36:21.829Z,3.17
2022-09-12T10:38:57.988Z,2.53
2022-09-12T10:41:25.436Z,2.92
2022-09-12T10:43:52.359Z,3.85
2022-09-12T10:46:19.428Z,3.58
2022-09-12T10:48:48.211Z,3.47
2022-09-12T10:51:35.407Z,4.10
2022-09-12T10:54:05.388Z,3.00
2022-09-12T10:56:50.943Z,3.95
2022-09-12T10:59:36.322Z,3.55
2022-09-12T11:02:35.612Z,4.10
2022-09-12T11:05:14.323Z,4.00
2022-09-12T11:07:53.267Z,3.63
2022-09-12T11:10:37.978Z,3.55
2022-09-12T11:13:24.757Z,3.28
2022-09-12T11:16:27.136Z,3.67
2022-09-12T11:19:16.997Z,3.72
2022-09-12T11:22:02.756Z,3.53
2022-09-12T11:24:44.587Z,4.10
2022-09-12T11:27:22.924Z,3.65
2022-09-12T11:29:58.345Z,3.65
2022-09-12T11:32:43.905Z,4.40
2022-09-12T11:35:24.726Z,4.03
2022-09-12T11:38:09.719Z,3.45
2022-09-12T11:40:56.817Z,3.13
2022-09-12T11:43:29.666Z,3.63
2022-09-12T11:46:01.416Z,3.90
2022-09-12T11:48:45.677Z,4.28
2022-09-12T11:51:28.333Z,3.00
2022-09-12T11:54:17.936Z,3.50
2022-09-12T11:56:54.508Z,3.40
2022-09-12T11:59:41.726Z,4.38
2022-09-12T12:02:17.510Z,2.95
2022-09-12T12:05:05.000Z,2.88
2022-09-12T12:07:45.443Z,2.10
2022-09-12T12:10:44.087Z,3.20
2022-09-12T12:13:25.556Z,2.50
2022-09-12T12:15:59.061Z,2.53
2022-09-12T12:18:28.896Z,3.65
2022-09-12T12:20:57.120Z,2.80
2022-09-12T12:23:34.067Z,3.58
2022-09-12T12:26:03.643Z,2.70
2022-09-12T12:28:42.870Z,3.20
2022-09-12T12:31:10.850Z,5.80
2022-09-12T12:33:37.792Z,3.83
2022-09-12T12:36:08.169Z,3.03
2022-09-12T12:38:37.327Z,2.40
2022-09-12T12:41:19.623Z,2.63
2022-09-12T12:43:48.566Z,2.63
2022-09-12T12:46:21.276Z,2.60
2022-09-12T12:48:53.608Z,2.60
2022-09-12T12:51:32.563Z,3.03
2022-09-12T12:54:02.815Z,2.80
2022-09-12T12:56:39.599Z,3.70
2022-09-12T12:59:33.578Z,3.55
2022-09-12T13:02:01.800Z,3.20
2022-09-12T13:04:31.543Z,2.78
2022-09-12T13:07:08.744Z,2.65
2022-09-12T13:09:45.348Z,2.38
2022-09-12T13:12:22.995Z,3.10
2022-09-12T13:14:54.033Z,3.20
2022-09-12T13:17:39.704Z,2.95
2022-09-12T13:20:27.133Z,3.42
2022-09-12T13:22:55.640Z,2.50
2022-09-12T13:25:27.976Z,3.60
2022-09-12T13:28:18.520Z,2.72
2022-09-12T13:31:02.188Z,2.63
2022-09-12T13:33:41.155Z,3.58
2022-09-12T13:36:36.060Z,2.53
2022-09-12T13:39:35.395Z,3.10
2022-09-12T13:42:03.165Z,2.80
2022-09-12T13:44:32.821Z,2.20
2022-09-12T13:47:03.558Z,2.67
2022-09-12T13:49:35.698Z,2.53
2022-09-12T13:52:22.058Z,2.80
2022-09-12T13:54:53.404Z,2.88
2022-09-12T13:57:37.490Z,2.85
2022-09-12T14:00:24.963Z,2.85
2022-09-12T14:03:14.799Z,2.75
2022-09-12T14:05:44.960Z,2.30
2022-09-12T14:08:15.292Z,2.53
2022-09-12T14:10:44.953Z,2.72
2022-09-12T14:13:34.209Z,2.80
2022-09-12T14:16:01.800Z,3.10
2022-09-12T14:18:36.298Z,2.30
2022-09-12T14:21:27.193Z,2.72
2022-09-12T14:23:55.211Z,2.75
2022-09-12T14:26:23.498Z,2.50
2022-09-12T14:28:51.687Z,2.85
2022-09-12T14:31:30.678Z,2.40
2022-09-12T14:34:11.292Z,2.33
2022-09-12T14:36:52.535Z,2.40
2022-09-12T14:39:29.979Z,2.42
2022-09-12T14:42:04.763Z,2.35
2022-09-12T14:44:33.475Z,2.28
2022-09-12T14:47:22.234Z,2.03
2022-09-12T14:49:51.691Z,2.05
2022-09-12T14:52:25.543Z,2.25
2022-09-12T14:55:04.582Z,2.30
2022-09-12T14:57:33.577Z,2.70
2022-09-12T15:00:12.814Z,2.10
2022-09-12T15:02:44.499Z,1.90
2022-09-12T15:05:11.504Z,2.00
2022-09-12T15:07:43.678Z,1.80
2022-09-12T15:10:31.413Z,2.03
2022-09-12T15:13:26.067Z,1.80
2022-09-12T15:15:58.377Z,1.83
2022-09-12T15:18:28.115Z,1.90
2022-09-12T15:20:57.857Z,2.10
2022-09-12T15:23:35.804Z,1.63
2022-09-12T15:26:03.382Z,1.95
2022-09-12T15:28:31.926Z,1.95
2022-09-12T15:31:07.310Z,1.50
2022-09-12T15:33:34.399Z,2.20
2022-09-12T15:36:01.487Z,1.90
2022-09-12T15:38:28.447Z,1.95
2022-09-12T15:40:55.830Z,1.70
2022-09-12T15:43:23.416Z,2.10
2022-09-12T15:45:52.230Z,1.88
2022-09-12T15:48:21.015Z,2.30
2022-09-12T15:50:48.515Z,1.80
2022-09-12T15:53:16.699Z,1.95
2022-09-12T15:55:43.864Z,1.60
2022-09-12T15:58:10.941Z,1.75
2022-09-12T16:00:38.107Z,1.70
2022-09-12T16:03:05.455Z,1.83
2022-09-12T16:05:32.990Z,1.90
2022-09-12T16:08:00.095Z,1.70
2022-09-12T16:10:29.943Z,2.00
2022-09-12T16:12:57.673Z,1.88
2022-09-12T16:15:26.180Z,2.00
2022-09-12T16:17:53.659Z,1.73
2022-09-12T16:20:21.997Z,2.35
2022-09-12T16:22:49.339Z,1.70
2022-09-12T16:25:17.313Z,1.85
2022-09-12T16:27:44.829Z,2.17
2022-09-12T16:30:13.115Z,1.38
2022-09-12T16:32:40.481Z,1.63
2022-09-12T16:35:08.163Z,1.80
2022-09-12T16:37:35.409Z,2.13
2022-09-12T16:40:04.448Z,2.05
2022-09-12T16:42:31.655Z,2.10
2022-09-12T16:44:58.625Z,1.77
2022-09-12T16:47:25.650Z,1.90
2022-09-12T16:49:52.871Z,1.70
2022-09-12T16:52:20.012Z,1.52
2022-09-12T16:54:46.914Z,1.65
2022-09-12T16:57:13.965Z,1.60
2022-09-12T16:59:40.883Z,1.80
2022-09-12T17:02:11.114Z,1.80
2022-09-12T17:04:38.167Z,1.50
2022-09-12T17:07:05.247Z,1.60
2022-09-12T17:09:32.143Z,1.85
2022-09-12T17:11:59.079Z,1.77
2022-09-12T17:14:26.451Z,1.65
2022-09-12T17:16:53.704Z,1.50
2022-09-12T17:19:26.706Z,1.70
2022-09-12T17:21:54.549Z,1.73
2022-09-12T17:24:21.979Z,1.67
2022-09-12T17:26:50.128Z,2.20
2022-09-12T17:29:18.035Z,2.25
2022-09-12T17:31:45.967Z,1.58
2022-09-12T17:34:16.294Z,1.60
2022-09-12T17:36:44.699Z,1.80
2022-09-12T17:39:13.831Z,1.90
2022-09-12T17:41:45.981Z,1.75
2022-09-12T17:44:15.082Z,2.00
2022-09-12T17:46:42.972Z,1.52
2022-09-12T17:49:18.844Z,2.08
2022-09-12T17:51:45.948Z,2.03
2022-09-12T17:54:17.728Z,1.90
2022-09-12T17:56:46.594Z,2.22
2022-09-12T17:59:19.544Z,2.03
2022-09-12T18:02:05.370Z,1.90
2022-09-12T18:04:32.637Z,2.10
2022-09-12T18:07:00.407Z,1.63
2022-09-12T18:09:28.222Z,1.98
2022-09-12T18:11:55.565Z,2.30
2022-09-12T18:14:23.592Z,2.10
2022-09-12T18:16:50.641Z,2.30
2022-09-12T18:19:18.092Z,2.33
2022-09-12T18:21:45.450Z,2.30
2022-09-12T18:24:12.779Z,2.53
2022-09-12T18:26:39.869Z,2.45
2022-09-12T18:29:07.380Z,2.55
2022-09-12T18:31:34.486Z,2.10
2022-09-12T18:34:02.541Z,2.50
2022-09-12T18:36:30.800Z,2.30
2022-09-12T18:38:59.098Z,1.90
2022-09-12T18:41:26.920Z,2.17
2022-09-12T18:43:55.965Z,2.30
2022-09-12T18:46:23.322Z,2.20
2022-09-12T18:48:50.548Z,2.40
2022-09-12T18:51:22.928Z,2.45
2022-09-12T18:53:52.167Z,2.30
2022-09-12T18:56:19.883Z,2.35
2022-09-12T18:58:53.425Z,2.60
2022-09-12T19:01:25.752Z,2.25
2022-09-12T19:03:53.965Z,2.67
2022-09-12T19:06:28.798Z,2.88
2022-09-12T19:08:57.292Z,3.03
2022-09-12T19:11:25.512Z,2.92
2022-09-12T19:13:54.033Z,3.22
2022-09-12T19:16:24.130Z,4.40
2022-09-12T19:18:52.457Z,5.70
2022-09-12T19:21:25.124Z,4.63
2022-09-12T19:23:53.671Z,3.83
2022-09-12T19:26:21.257Z,3.20
2022-09-12T19:28:48.748Z,3.83
2022-09-12T19:31:21.815Z,3.90
2022-09-12T19:33:49.529Z,5.10
2022-09-12T19:36:43.905Z,4.57
2022-09-12T19:39:07.560Z,4.30
2022-09-12T19:41:34.908Z,3.90
2022-09-12T19:44:03.072Z,4.82
2022-09-12T19:46:30.635Z,4.22
2022-09-12T19:48:57.635Z,4.88
2022-09-12T19:51:24.825Z,5.10
2022-09-12T19:53:52.300Z,4.50
2022-09-12T19:56:19.654Z,4.70
2022-09-12T19:58:50.867Z,4.63
2022-09-12T20:01:28.172Z,4.35
2022-09-12T20:03:59.286Z,3.78
2022-09-12T20:06:27.412Z,4.53
2022-09-12T20:08:55.324Z,3.90
2022-09-12T20:11:24.088Z,4.18
2022-09-12T20:13:51.827Z,4.22
2022-09-12T20:16:22.066Z,4.05
2022-09-12T20:18:54.663Z,3.95
2022-09-12T20:21:25.387Z,5.15
2022-09-12T20:23:52.550Z,6.38
2022-09-12T20:26:20.519Z,5.57
2022-09-12T20:28:47.880Z,6.40
2022-09-12T20:31:16.060Z,6.13
2022-09-12T20:33:43.978Z,5.50
2022-09-12T20:36:14.409Z,7.75
2022-09-12T20:38:42.312Z,5.72
2022-09-12T20:41:11.058Z,5.32
2022-09-12T20:43:40.950Z,3.92
2022-09-12T20:46:12.701Z,4.90
2022-09-12T20:48:40.006Z,5.20
2022-09-12T20:51:07.926Z,5.45
2022-09-12T20:53:35.515Z,5.30
2022-09-12T20:56:03.775Z,4.43
2022-09-12T20:58:31.063Z,4.10
2022-09-12T21:00:58.053Z,6.05
2022-09-12T21:03:27.856Z,7.10
2022-09-12T21:05:55.129Z,6.18
2022-09-12T21:08:22.149Z,4.80
2022-09-12T21:10:49.112Z,4.65
2022-09-12T21:13:16.098Z,4.40
2022-09-12T21:15:43.199Z,5.30
2022-09-12T21:18:10.209Z,4.80
2022-09-12T21:20:37.267Z,4.25
2022-09-12T21:23:04.220Z,4.43
2022-09-12T21:25:31.300Z,5.80
2022-09-12T21:27:58.910Z,4.70
2022-09-12T21:30:25.859Z,5.15
2022-09-12T21:32:53.244Z,4.50
2022-09-12T21:35:20.442Z,4.90
2022-09-12T21:37:47.438Z,4.63
2022-09-12T21:40:14.585Z,4.63
2022-09-12T21:42:41.613Z,4.13
2022-09-12T21:45:09.032Z,4.75
2022-09-12T21:47:38.985Z,5.00
2022-09-12T21:50:09.382Z,4.78
2022-09-12T21:52:36.984Z,4.25
2022-09-12T21:55:05.519Z,4.97
2022-09-12T21:57:33.604Z,4.53
2022-09-12T22:00:01.071Z,5.35
2022-09-12T22:02:28.387Z,4.70
2022-09-12T22:04:56.144Z,5.07
2022-09-12T22:07:24.546Z,4.95
2022-09-12T22:09:51.932Z,5.28
2022-09-12T22:12:19.290Z,6.82
2022-09-12T22:14:46.812Z,8.80
2022-09-12T22:17:14.186Z,9.50
2022-09-12T22:19:41.416Z,8.52
2022-09-12T22:22:26.922Z,7.78
2022-09-12T22:24:53.905Z,8.48
2022-09-12T22:27:20.896Z,7.68
2022-09-12T22:29:50.603Z,6.85
2022-09-12T22:32:18.848Z,5.43
2022-09-12T22:34:46.438Z,4.88
2022-09-12T22:37:13.624Z,5.07
2022-09-12T22:39:40.966Z,4.35
2022-09-12T22:42:09.660Z,5.15
2022-09-12T22:44:36.591Z,4.63
2022-09-12T22:47:03.638Z,4.85
2022-09-12T22:49:30.956Z,4.88
2022-09-12T22:51:58.175Z,5.05
2022-09-12T22:54:25.100Z,4.68
2022-09-12T22:56:52.011Z,4.60
2022-09-12T22:59:18.906Z,4.72
2022-09-12T23:01:45.886Z,4.53
2022-09-12T23:04:13.205Z,5.22
2022-09-12T23:06:40.125Z,4.70
2022-09-12T23:09:07.213Z,5.40
2022-09-12T23:11:34.150Z,5.38
2022-09-12T23:14:01.043Z,4.70
2022-09-12T23:16:31.123Z,5.15
2022-09-12T23:18:58.296Z,4.85
2022-09-12T23:21:25.248Z,5.22
2022-09-12T23:23:52.276Z,4.90
2022-09-12T23:26:24.870Z,5.75
2022-09-12T23:29:00.135Z,6.28
2022-09-12T23:34:01.984Z,6.28
2022-09-12T23:36:30.101Z,7.45
2022-09-12T23:38:57.244Z,7.50
2022-09-12T23:41:24.807Z,6.90
2022-09-12T23:43:51.935Z,6.60
2022-09-12T23:46:20.124Z,6.63
2022-09-12T23:48:47.834Z,6.30
2022-09-12T23:51:15.012Z,6.18
2022-09-12T23:53:42.134Z,5.78
2022-09-12T23:56:09.446Z,6.18
2022-09-12T23:58:36.703Z,5.43
